createdAt,value
2017-10-25T00:00:06.071Z,6.40
2017-10-25T00:02:33.745Z,6.40
2017-10-25T00:07:40.667Z,6.10
2017-10-25T00:10:08.151Z,6.30
2017-10-25T00:15:03.492Z,6.30
2017-10-25T00:17:31.112Z,6.30
2017-10-25T00:19:58.746Z,6.20
2017-10-25T00:22:26.433Z,6.20
2017-10-25T00:24:54.064Z,6.20
2017-10-25T00:27:21.697Z,6.20
2017-10-25T00:29:49.397Z,6.20
2017-10-25T00:32:17.022Z,6.20
2017-10-25T00:34:44.645Z,6.20
2017-10-25T00:37:12.320Z,6.20
2017-10-25T00:42:07.563Z,6.30
2017-10-25T00:44:35.267Z,6.40
2017-10-25T00:47:02.898Z,6.40
2017-10-25T00:49:30.524Z,6.30
2017-10-25T00:54:25.837Z,5.80
2017-10-25T00:56:53.462Z,5.80
2017-10-25T00:59:21.132Z,6.00
2017-10-25T01:01:57.219Z,6.10
2017-10-25T01:04:25.134Z,6.10
2017-10-25T01:06:52.592Z,6.20
2017-10-25T01:09:20.229Z,6.20
2017-10-25T01:11:47.929Z,6.10
2017-10-25T01:14:15.556Z,5.90
2017-10-25T01:16:43.183Z,5.90
2017-10-25T01:19:11.264Z,5.90
2017-10-25T01:21:38.899Z,6.00
2017-10-25T01:24:06.522Z,5.90
2017-10-25T01:26:34.233Z,6.00
2017-10-25T01:29:01.868Z,6.00
2017-10-25T01:31:29.504Z,6.10
2017-10-25T01:36:36.320Z,6.20
2017-10-25T01:39:05.004Z,6.30
2017-10-25T01:41:32.743Z,6.30
2017-10-25T01:44:00.387Z,6.20
2017-10-25T01:46:28.103Z,6.20
2017-10-25T01:48:55.741Z,6.00
2017-10-25T01:51:23.406Z,6.10
2017-10-25T01:53:51.874Z,6.00
2017-10-25T01:56:19.529Z,5.90
2017-10-25T01:58:48.018Z,5.70
2017-10-25T02:01:15.722Z,5.70
2017-10-25T02:03:44.178Z,5.80
2017-10-25T02:06:11.822Z,5.80
2017-10-25T02:08:39.516Z,5.90
2017-10-25T02:13:36.573Z,5.90
2017-10-25T02:18:32.905Z,5.90
2017-10-25T02:21:00.545Z,6.00
2017-10-25T02:23:28.277Z,6.00
2017-10-25T02:25:56.750Z,6.00
2017-10-25T02:28:24.520Z,6.00
2017-10-25T02:30:52.216Z,5.90
2017-10-25T02:33:19.865Z,6.00
2017-10-25T02:38:28.691Z,6.00
2017-10-25T02:40:56.344Z,6.10
2017-10-25T02:43:23.987Z,6.20
2017-10-25T02:45:51.692Z,6.20
2017-10-25T02:48:19.345Z,6.20
2017-10-25T02:50:47.941Z,6.20
2017-10-25T02:53:15.647Z,6.10
2017-10-25T02:55:43.308Z,6.10
2017-10-25T03:00:39.465Z,5.90
2017-10-25T03:03:07.839Z,5.80
2017-10-25T03:05:35.513Z,5.90
2017-10-25T03:08:03.945Z,5.90
2017-10-25T03:13:00.546Z,5.70
2017-10-25T03:15:28.252Z,5.60
2017-10-25T03:17:55.901Z,5.50
2017-10-25T03:20:23.526Z,5.50
2017-10-25T03:22:51.232Z,5.50
2017-10-25T03:25:18.884Z,5.40
2017-10-25T03:27:46.539Z,5.50
2017-10-25T03:30:14.252Z,5.40
2017-10-25T03:32:41.887Z,5.50
2017-10-25T03:37:37.268Z,5.60
2017-10-25T03:42:44.569Z,5.60
2017-10-25T03:45:12.230Z,5.70
2017-10-25T03:47:39.877Z,5.70
2017-10-25T03:50:08.437Z,5.70
2017-10-25T03:52:36.927Z,5.70
2017-10-25T03:55:04.578Z,5.70
2017-10-25T03:57:32.295Z,5.70
2017-10-25T03:59:59.943Z,5.60
2017-10-25T04:02:27.614Z,5.60
2017-10-25T04:04:55.310Z,5.60
2017-10-25T04:07:22.987Z,5.50
2017-10-25T04:09:51.225Z,5.50
2017-10-25T04:12:18.795Z,5.50
2017-10-25T04:14:46.444Z,5.50
2017-10-25T04:19:43.547Z,5.40
2017-10-25T04:22:11.229Z,5.30
2017-10-25T04:24:39.859Z,5.10
2017-10-25T04:27:07.572Z,5.20
2017-10-25T04:32:08.274Z,5.30
2017-10-25T04:34:35.895Z,5.20
2017-10-25T04:37:03.523Z,5.30
2017-10-25T04:39:31.204Z,5.20
2017-10-25T04:41:58.989Z,5.20
2017-10-25T04:44:26.549Z,5.20
2017-10-25T04:46:54.217Z,5.10
2017-10-25T04:49:22.409Z,5.00
2017-10-25T04:51:50.853Z,5.10
2017-10-25T04:54:18.543Z,5.20
2017-10-25T04:56:46.179Z,5.20
2017-10-25T05:02:00.277Z,5.10
2017-10-25T05:04:28.770Z,5.00
2017-10-25T05:06:57.362Z,5.00
2017-10-25T05:09:25.047Z,5.10
2017-10-25T05:11:53.649Z,5.20
2017-10-25T05:14:23.834Z,5.20
2017-10-25T05:16:51.293Z,5.10
2017-10-25T05:19:18.941Z,5.10
2017-10-25T05:21:47.391Z,5.10
2017-10-25T05:24:15.943Z,5.20
2017-10-25T05:26:43.576Z,5.10
2017-10-25T05:29:12.173Z,5.00
2017-10-25T05:31:39.870Z,5.00
2017-10-25T05:34:07.516Z,5.10
2017-10-25T05:36:36.450Z,5.10
2017-10-25T05:39:04.168Z,5.10
2017-10-25T05:41:31.805Z,5.10
2017-10-25T05:43:59.453Z,5.00
2017-10-25T05:46:28.105Z,5.10
2017-10-25T05:48:55.742Z,5.20
2017-10-25T05:51:23.365Z,5.20
2017-10-25T05:53:51.914Z,5.20
2017-10-25T05:56:19.541Z,5.20
2017-10-25T05:58:47.184Z,5.20
2017-10-25T06:01:14.872Z,5.30
2017-10-25T06:03:42.514Z,5.30
2017-10-25T06:06:10.974Z,5.20
2017-10-25T06:08:38.741Z,5.30
2017-10-25T06:11:06.412Z,5.30
2017-10-25T06:16:15.000Z,5.30
2017-10-25T06:18:45.488Z,5.50
2017-10-25T06:21:13.679Z,5.50
2017-10-25T06:23:42.355Z,5.60
2017-10-25T06:26:11.482Z,5.50
2017-10-25T06:28:39.156Z,5.60
2017-10-25T06:31:08.320Z,5.60
2017-10-25T06:33:35.975Z,5.50
2017-10-25T06:36:03.654Z,5.50
2017-10-25T06:38:33.307Z,5.50
2017-10-25T06:41:02.239Z,5.60
2017-10-25T06:43:29.918Z,5.60
2017-10-25T06:45:57.647Z,5.70
2017-10-25T06:48:25.348Z,5.80
2017-10-25T06:50:53.838Z,6.00
2017-10-25T06:53:21.582Z,6.10
2017-10-25T06:55:49.255Z,6.30
2017-10-25T06:58:16.918Z,6.30
2017-10-25T07:00:44.910Z,6.20
2017-10-25T07:03:12.574Z,6.20
2017-10-25T07:05:41.183Z,6.10
2017-10-25T07:08:08.902Z,6.10
2017-10-25T07:10:37.403Z,6.20
2017-10-25T07:13:05.105Z,6.10
2017-10-25T07:15:33.789Z,6.10
2017-10-25T07:18:02.281Z,6.40
2017-10-25T07:20:29.935Z,6.60
2017-10-25T07:22:58.386Z,6.50
2017-10-25T07:25:26.095Z,6.50
2017-10-25T07:27:53.767Z,6.70
2017-10-25T07:30:21.526Z,6.80
2017-10-25T07:32:50.147Z,6.70
2017-10-25T07:37:46.498Z,6.80
2017-10-25T07:42:53.924Z,7.40
2017-10-25T07:45:21.581Z,7.30
2017-10-25T07:47:49.342Z,7.60
2017-10-25T07:50:18.031Z,7.30
2017-10-25T07:52:45.714Z,7.60
2017-10-25T07:57:53.558Z,7.90
2017-10-25T08:00:21.224Z,7.70
2017-10-25T08:02:48.875Z,7.80
2017-10-25T08:05:17.657Z,8.10
2017-10-25T08:07:46.200Z,8.20
2017-10-25T08:10:13.877Z,8.30
2017-10-25T08:12:41.605Z,8.50
2017-10-25T08:15:09.803Z,8.70
2017-10-25T08:17:37.475Z,8.60
2017-10-25T08:20:06.611Z,8.90
2017-10-25T08:22:34.222Z,9.00
2017-10-25T08:27:34.090Z,8.60
2017-10-25T08:30:02.205Z,8.50
2017-10-25T08:32:29.891Z,8.50
2017-10-25T08:34:57.612Z,8.60
2017-10-25T08:37:27.452Z,8.60
2017-10-25T08:39:55.570Z,8.80
2017-10-25T08:42:24.201Z,8.80
2017-10-25T08:44:55.142Z,9.00
2017-10-25T08:47:22.809Z,8.70
2017-10-25T08:49:51.320Z,9.20
2017-10-25T08:52:19.008Z,9.70
2017-10-25T08:54:47.175Z,9.90
2017-10-25T08:59:43.746Z,10.50
2017-10-25T09:02:11.444Z,10.50
2017-10-25T09:04:39.170Z,10.80
2017-10-25T09:07:07.785Z,10.70
2017-10-25T09:09:35.934Z,11.00
2017-10-25T09:12:03.906Z,11.10
2017-10-25T09:14:33.095Z,11.40
2017-10-25T09:17:00.751Z,11.60
2017-10-25T09:19:28.478Z,11.70
2017-10-25T09:24:36.272Z,11.60
2017-10-25T09:27:04.786Z,11.90
2017-10-25T09:29:33.298Z,12.30
2017-10-25T09:34:40.718Z,12.10
2017-10-25T09:37:08.439Z,12.50
2017-10-25T09:39:36.112Z,12.90
2017-10-25T09:42:04.720Z,13.00
2017-10-25T09:44:32.877Z,13.60
2017-10-25T09:47:02.577Z,14.00
2017-10-25T09:49:30.518Z,13.60
2017-10-25T09:51:59.153Z,13.70
2017-10-25T09:54:26.824Z,14.10
2017-10-25T09:56:54.999Z,14.40
2017-10-25T09:59:22.710Z,14.40
2017-10-25T10:01:51.730Z,14.50
2017-10-25T10:04:21.085Z,15.00
2017-10-25T10:06:49.786Z,15.20
2017-10-25T10:11:46.682Z,14.80
2017-10-25T10:14:15.763Z,13.80
2017-10-25T10:16:44.765Z,13.60
2017-10-25T10:19:13.404Z,13.80
2017-10-25T10:21:45.763Z,14.20
2017-10-25T10:24:14.247Z,14.40
2017-10-25T10:26:43.140Z,14.20
2017-10-25T10:29:12.605Z,14.40
2017-10-25T10:31:40.171Z,15.10
2017-10-25T10:36:52.150Z,14.60
2017-10-25T10:39:20.775Z,15.50
2017-10-25T10:41:48.906Z,15.70
2017-10-25T10:44:16.631Z,16.00
2017-10-25T10:46:45.168Z,14.80
2017-10-25T10:49:13.315Z,15.20
2017-10-25T10:51:42.883Z,15.30
2017-10-25T10:54:11.124Z,14.90
2017-10-25T10:59:07.859Z,14.70
2017-10-25T11:01:37.031Z,14.80
2017-10-25T11:04:05.352Z,14.70
2017-10-25T11:06:33.908Z,14.60
2017-10-25T11:09:01.583Z,14.30
2017-10-25T11:11:29.744Z,14.20
2017-10-25T11:14:00.116Z,14.10
2017-10-25T11:16:34.493Z,14.70
2017-10-25T11:19:09.726Z,14.90
2017-10-25T11:24:30.835Z,15.30
2017-10-25T11:27:17.300Z,15.30
2017-10-25T11:29:54.156Z,14.90
2017-10-25T11:35:17.814Z,14.70
2017-10-25T11:40:30.180Z,14.70
2017-10-25T11:42:57.849Z,15.00
2017-10-25T11:45:25.513Z,15.20
2017-10-25T11:47:53.227Z,14.80
2017-10-25T11:50:20.940Z,15.20
2017-10-25T11:52:49.497Z,15.20
2017-10-25T11:55:18.165Z,15.00
2017-10-25T11:57:45.852Z,15.40
2017-10-25T12:00:13.507Z,15.60
2017-10-25T12:02:41.239Z,16.10
2017-10-25T12:05:08.901Z,16.30
2017-10-25T12:07:37.223Z,16.20
2017-10-25T12:10:04.715Z,16.40
2017-10-25T12:12:32.404Z,16.60
2017-10-25T12:15:00.068Z,17.10
2017-10-25T12:23:06.183Z,16.10
2017-10-25T12:37:07.123Z,16.60
2017-10-25T12:39:41.570Z,15.90
2017-10-25T12:42:26.371Z,15.70
2017-10-25T12:45:10.889Z,15.50
2017-10-25T13:05:02.215Z,16.10
2017-10-25T13:07:43.340Z,16.30
2017-10-25T13:10:27.738Z,16.40
2017-10-25T13:16:02.101Z,16.50
2017-10-25T13:38:54.019Z,16.70
2017-10-25T14:18:44.029Z,16.30
2017-10-25T14:38:43.278Z,16.80
2017-10-25T15:23:56.324Z,17.30
2017-10-25T15:26:39.268Z,17.30
2017-10-25T15:31:58.060Z,17.20
2017-10-25T15:34:42.171Z,17.20
2017-10-25T15:37:16.597Z,17.20
2017-10-25T15:48:30.018Z,16.50
2017-10-25T15:50:57.688Z,16.50
2017-10-25T15:53:25.342Z,16.20
2017-10-25T15:55:53.007Z,16.00
2017-10-25T15:58:21.680Z,15.80
2017-10-25T16:00:49.353Z,15.70
2017-10-25T16:03:17.022Z,15.70
2017-10-25T16:05:44.744Z,15.60
2017-10-25T16:08:12.402Z,15.50
2017-10-25T16:10:40.059Z,15.50
2017-10-25T16:13:07.781Z,15.40
2017-10-25T16:15:36.202Z,15.30
2017-10-25T16:18:03.858Z,15.20
2017-10-25T16:20:31.579Z,15.10
2017-10-25T16:40:27.502Z,14.50
2017-10-25T16:43:03.033Z,14.50
2017-10-25T16:45:30.962Z,14.50
2017-10-25T16:47:58.645Z,14.40
2017-10-25T16:50:26.387Z,14.40
2017-10-25T16:52:54.045Z,14.20
2017-10-25T16:55:21.713Z,14.00
2017-10-25T16:57:49.415Z,13.70
2017-10-25T17:00:17.927Z,13.60
2017-10-25T17:02:46.333Z,13.60
2017-10-25T17:05:14.036Z,13.70
2017-10-25T17:07:42.213Z,13.70
2017-10-25T17:10:09.869Z,13.70
2017-10-25T17:12:37.604Z,13.70
2017-10-25T17:15:06.500Z,13.60
2017-10-25T17:17:34.022Z,13.60
2017-10-25T17:20:02.367Z,13.50
2017-10-25T17:25:56.595Z,13.20
2017-10-25T17:28:24.284Z,13.20
2017-10-25T17:30:51.944Z,13.20
2017-10-25T17:35:47.730Z,12.90
2017-10-25T17:38:15.811Z,12.80
2017-10-25T17:40:43.580Z,12.90
2017-10-25T17:43:11.286Z,12.70
2017-10-25T17:51:28.653Z,12.70
2017-10-25T17:53:56.373Z,12.60
2017-10-25T17:56:24.136Z,12.50
2017-10-25T17:58:56.025Z,12.40
2017-10-25T18:01:24.230Z,12.40
2017-10-25T18:03:52.390Z,12.40
2017-10-25T18:06:21.058Z,12.40
2017-10-25T18:08:48.819Z,12.40
2017-10-25T18:11:16.494Z,12.30
2017-10-25T18:13:44.154Z,12.30
2017-10-25T18:16:11.859Z,12.30
2017-10-25T18:18:41.466Z,12.30
2017-10-25T18:21:09.017Z,12.20
2017-10-25T18:23:36.641Z,12.20
2017-10-25T18:26:04.348Z,12.10
2017-10-25T18:28:37.480Z,12.00
2017-10-25T18:33:44.795Z,12.00
2017-10-25T18:36:12.573Z,12.00
2017-10-25T18:38:40.804Z,11.90
2017-10-25T18:41:08.699Z,12.00
2017-10-25T18:43:36.467Z,11.90
2017-10-25T18:46:04.112Z,11.90
2017-10-25T18:48:31.756Z,11.80
2017-10-25T18:50:59.438Z,11.60
2017-10-25T18:53:27.279Z,11.50
2017-10-25T18:55:54.888Z,11.50
2017-10-25T18:58:22.610Z,11.50
2017-10-25T19:00:50.255Z,11.60
2017-10-25T19:03:17.976Z,11.50
2017-10-25T19:05:45.622Z,11.40
2017-10-25T19:08:13.303Z,11.20
2017-10-25T19:10:41.061Z,11.20
2017-10-25T19:13:08.765Z,11.20
2017-10-25T19:15:36.440Z,11.30
2017-10-25T19:18:04.101Z,11.20
2017-10-25T19:20:31.793Z,11.20
2017-10-25T19:22:59.519Z,11.10
2017-10-25T19:25:27.157Z,11.10
2017-10-25T19:27:55.111Z,11.20
2017-10-25T19:30:22.747Z,11.10
2017-10-25T19:32:51.298Z,11.10
2017-10-25T19:35:18.998Z,11.10
2017-10-25T19:37:46.651Z,11.10
2017-10-25T19:42:43.262Z,11.00
2017-10-25T19:45:11.026Z,10.90
2017-10-25T19:47:38.913Z,10.80
2017-10-25T19:50:06.841Z,10.70
2017-10-25T19:52:34.543Z,10.60
2017-10-25T19:57:41.602Z,10.70
2017-10-25T20:00:09.290Z,10.70
2017-10-25T20:02:36.958Z,10.80
2017-10-25T20:05:05.917Z,10.60
2017-10-25T20:07:34.420Z,10.70
2017-10-25T20:10:02.831Z,10.60
2017-10-25T20:12:30.567Z,10.60
2017-10-25T20:14:58.227Z,10.50
2017-10-25T20:17:25.892Z,10.50
2017-10-25T20:19:54.457Z,10.40
2017-10-25T20:22:22.143Z,10.40
2017-10-25T20:24:49.795Z,10.40
2017-10-25T20:27:17.543Z,10.40
2017-10-25T20:32:37.997Z,10.40
2017-10-25T20:35:13.456Z,10.40
2017-10-25T20:37:57.549Z,10.40
2017-10-25T20:49:27.500Z,10.10
2017-10-25T20:51:56.175Z,10.20
2017-10-25T20:54:23.823Z,10.30
2017-10-25T20:56:51.481Z,10.30
2017-10-25T21:01:46.863Z,10.20
2017-10-25T21:04:14.534Z,10.10
2017-10-25T21:06:42.227Z,10.10
2017-10-25T21:09:10.613Z,10.10
2017-10-25T21:14:14.810Z,10.10
2017-10-25T21:16:42.435Z,9.90
2017-10-25T21:19:10.096Z,9.80
2017-10-25T21:21:37.815Z,9.90
2017-10-25T21:26:45.043Z,10.00
2017-10-25T21:29:13.649Z,10.00
2017-10-25T21:31:41.318Z,10.00
2017-10-25T21:34:15.770Z,10.00
2017-10-25T21:36:48.103Z,9.90
2017-10-25T21:45:02.373Z,9.90
2017-10-25T21:47:37.610Z,9.90
2017-10-25T21:50:05.300Z,9.80
2017-10-25T21:52:32.947Z,9.70
2017-10-25T21:55:00.594Z,9.60
2017-10-25T21:57:28.314Z,9.60
2017-10-25T21:59:56.925Z,9.60
2017-10-25T22:02:24.555Z,9.60
2017-10-25T22:04:52.549Z,9.40
2017-10-25T22:07:20.198Z,9.40
2017-10-25T22:09:47.820Z,9.40
2017-10-25T22:12:16.454Z,9.50
2017-10-25T22:14:44.082Z,9.40
2017-10-25T22:17:11.708Z,9.40
2017-10-25T22:19:39.388Z,9.30
2017-10-25T22:22:07.019Z,9.40
2017-10-25T22:24:34.659Z,9.20
2017-10-25T22:27:02.352Z,8.80
2017-10-25T22:29:29.982Z,8.80
2017-10-25T22:31:57.620Z,8.70
2017-10-25T22:34:25.332Z,8.80
2017-10-25T22:36:52.962Z,8.80
2017-10-25T22:39:20.596Z,8.90
2017-10-25T22:41:48.272Z,9.00
2017-10-25T22:44:15.925Z,8.90
2017-10-25T22:46:43.588Z,9.00
2017-10-25T22:49:11.303Z,9.00
2017-10-25T22:51:39.295Z,9.00
2017-10-25T22:56:45.575Z,8.90
2017-10-25T22:59:13.223Z,9.00
2017-10-25T23:01:41.098Z,9.10
2017-10-25T23:04:08.738Z,8.90
2017-10-25T23:06:36.377Z,9.00
2017-10-25T23:09:04.030Z,8.80
2017-10-25T23:11:31.740Z,8.90
2017-10-25T23:13:59.626Z,8.90
2017-10-25T23:16:27.252Z,8.90
2017-10-25T23:18:54.946Z,8.90
2017-10-25T23:21:22.573Z,8.70
2017-10-25T23:23:50.203Z,8.60
2017-10-25T23:26:17.897Z,8.60
2017-10-25T23:28:45.529Z,8.70
2017-10-25T23:31:13.160Z,8.60
2017-10-25T23:33:40.907Z,8.60
2017-10-25T23:36:08.536Z,8.70
2017-10-25T23:38:36.169Z,8.70
2017-10-25T23:41:04.693Z,8.70
2017-10-25T23:43:32.320Z,8.70
2017-10-25T23:45:59.941Z,8.80
2017-10-25T23:48:27.629Z,8.70
2017-10-25T23:50:55.268Z,8.70
2017-10-25T23:53:22.910Z,8.80
2017-10-25T23:55:51.576Z,8.80
2017-10-25T23:58:19.216Z,8.70
